Time;durP1;ratioP1;P1;durP2;ratioP2;P2;SDS_P1;SDS_P2;PMS_P1;PMS_P2;Temp;Humidity;BMP_temperature;BMP_pressure;BME280_temperature;BME280_humidity;BME280_pressure;Samples;Min_cycle;Max_cycle;Signal;HPM_P1;HPM_P2
2023/04/23 00:01:52;;;;;;;3.53;2.70;;;;;;;;;;5030123;28;20209;-36
2023/04/23 00:04:21;;;;;;;3.23;2.80;;;;;;;;;;5049779;28;20213;-41
2023/04/23 00:06:49;;;;;;;3.33;2.73;;;;;;;;;;5043716;28;20210;-35
2023/04/23 00:09:16;;;;;;;5.13;2.40;;;;;;;;;;5054897;28;20438;-44
2023/04/23 00:11:44;;;;;;;2.50;2.30;;;;;;;;;;5044442;28;20596;-37
2023/04/23 00:14:13;;;;;;;3.63;2.37;;;;;;;;;;5031533;28;20223;-41
2023/04/23 00:16:40;;;;;;;3.33;2.47;;;;;;;;;;5030378;28;20491;-36
2023/04/23 00:19:07;;;;;;;2.77;1.97;;;;;;;;;;5036511;28;20212;-35
2023/04/23 00:21:35;;;;;;;3.70;1.93;;;;;;;;;;5051352;28;20198;-41
2023/04/23 00:24:02;;;;;;;3.17;2.33;;;;;;;;;;5056234;28;20230;-37
2023/04/23 00:26:29;;;;;;;3.80;2.60;;;;;;;;;;5040651;28;20201;-36
2023/04/23 00:28:56;;;;;;;2.23;2.03;;;;;;;;;;5043925;28;20198;-40
2023/04/23 00:31:25;;;;;;;5.27;2.80;;;;;;;;;;5048018;28;20260;-42
2023/04/23 00:33:53;;;;;;;3.10;2.43;;;;;;;;;;5039930;28;20249;-39
2023/04/23 00:36:20;;;;;;;4.63;2.20;;;;;;;;;;5053667;28;20197;-39
2023/04/23 00:38:47;;;;;;;2.13;1.93;;;;;;;;;;5062968;28;20198;-41
2023/04/23 00:41:15;;;;;;;2.73;2.00;;;;;;;;;;5052501;28;20530;-33
2023/04/23 00:43:42;;;;;;;3.77;2.17;;;;;;;;;;5034725;28;20227;-40
2023/04/23 00:46:10;;;;;;;1.93;1.77;;;;;;;;;;5050951;28;20201;-43
2023/04/23 00:48:39;;;;;;;5.23;2.00;;;;;;;;;;5031262;28;20249;-38
2023/04/23 00:51:06;;;;;;;7.10;2.53;;;;;;;;;;5050623;28;20229;-44
2023/04/23 00:53:34;;;;;;;3.27;1.90;;;;;;;;;;5059528;28;20226;-37
2023/04/23 00:56:02;;;;;;;2.60;1.93;;;;;;;;;;5049976;28;20214;-38
2023/04/23 00:58:30;;;;;;;4.13;2.23;;;;;;;;;;5034466;28;20204;-38
2023/04/23 01:00:57;;;;;;;4.60;2.10;;;;;;;;;;5030580;28;20194;-39
2023/04/23 01:03:24;;;;;;;3.53;2.13;;;;;;;;;;5035931;28;20226;-42
2023/04/23 01:05:53;;;;;;;2.27;1.70;;;;;;;;;;5041512;28;20605;-42
2023/04/23 01:08:22;;;;;;;2.70;1.90;;;;;;;;;;5059902;28;20194;-42
2023/04/23 01:10:49;;;;;;;4.97;1.70;;;;;;;;;;5045323;28;20694;-36
2023/04/23 01:13:16;;;;;;;3.40;1.90;;;;;;;;;;5036898;28;20253;-36
2023/04/23 01:15:44;;;;;;;2.83;2.10;;;;;;;;;;5041910;28;20202;-43
2023/04/23 01:18:12;;;;;;;4.13;2.20;;;;;;;;;;5035238;28;20198;-42
2023/04/23 01:20:40;;;;;;;1.70;1.60;;;;;;;;;;5047837;28;20202;-42
2023/04/23 01:23:08;;;;;;;4.77;2.07;;;;;;;;;;5054116;28;20214;-36
2023/04/23 01:25:35;;;;;;;3.40;2.00;;;;;;;;;;5049752;28;20197;-39
2023/04/23 01:28:03;;;;;;;2.87;1.90;;;;;;;;;;5050135;28;20209;-38
2023/04/23 01:30:30;;;;;;;4.03;1.80;;;;;;;;;;5042319;28;20216;-40
2023/04/23 01:32:58;;;;;;;3.03;1.87;;;;;;;;;;5039402;28;20204;-41
2023/04/23 01:35:25;;;;;;;2.23;2.00;;;;;;;;;;5042219;28;20213;-37
2023/04/23 01:37:54;;;;;;;3.43;2.00;;;;;;;;;;5062107;28;20258;-36
2023/04/23 01:40:23;;;;;;;6.33;2.40;;;;;;;;;;5054530;28;20194;-40
2023/04/23 01:42:50;;;;;;;2.70;1.80;;;;;;;;;;5034725;28;20199;-40
2023/04/23 01:45:18;;;;;;;2.13;1.77;;;;;;;;;;5030687;28;20213;-38
2023/04/23 01:47:48;;;;;;;4.53;2.13;;;;;;;;;;5038737;28;20209;-40
2023/04/23 01:50:15;;;;;;;2.67;2.07;;;;;;;;;;5034461;28;20218;-37
2023/04/23 01:52:43;;;;;;;1.67;1.57;;;;;;;;;;5048969;28;20198;-42
2023/04/23 01:55:10;;;;;;;2.03;1.87;;;;;;;;;;5050947;28;20633;-41
2023/04/23 01:57:39;;;;;;;4.10;2.10;;;;;;;;;;5031141;28;20202;-41
2023/04/23 02:00:08;;;;;;;3.43;1.77;;;;;;;;;;5038630;28;20221;-39
2023/04/23 02:02:35;;;;;;;3.47;1.90;;;;;;;;;;5049829;28;20213;-40
2023/04/23 02:05:03;;;;;;;2.00;1.90;;;;;;;;;;5039476;28;20317;-35
2023/04/23 02:07:31;;;;;;;4.27;2.00;;;;;;;;;;5047934;28;20208;-37
2023/04/23 02:09:58;;;;;;;2.77;1.77;;;;;;;;;;5050528;28;20213;-38
2023/04/23 02:12:25;;;;;;;3.10;1.93;;;;;;;;;;5035820;28;20231;-39
2023/04/23 02:14:54;;;;;;;2.33;1.80;;;;;;;;;;5033682;28;20228;-36
2023/04/23 02:17:22;;;;;;;4.63;1.93;;;;;;;;;;5033033;28;20205;-41
2023/04/23 02:19:49;;;;;;;3.33;1.97;;;;;;;;;;5041463;28;20264;-34
2023/04/23 02:22:16;;;;;;;3.87;2.03;;;;;;;;;;5035453;28;20315;-36
2023/04/23 02:24:46;;;;;;;3.80;1.93;;;;;;;;;;5030817;28;20226;-38
2023/04/23 02:27:13;;;;;;;3.30;2.07;;;;;;;;;;5041736;28;20351;-34
2023/04/23 02:29:40;;;;;;;4.47;2.43;;;;;;;;;;5048886;28;20212;-38
2023/04/23 02:32:09;;;;;;;2.43;2.03;;;;;;;;;;5051148;28;20236;-39
2023/04/23 02:34:37;;;;;;;3.10;2.20;;;;;;;;;;5038571;28;20241;-41
2023/04/23 02:37:05;;;;;;;5.17;2.13;;;;;;;;;;5030919;28;20206;-39
2023/04/23 02:39:32;;;;;;;3.83;2.17;;;;;;;;;;5031164;28;20335;-38
2023/04/23 02:41:59;;;;;;;2.10;1.70;;;;;;;;;;5036039;28;20225;-37
2023/04/23 02:44:26;;;;;;;2.07;1.87;;;;;;;;;;5052852;28;20223;-41
2023/04/23 02:46:53;;;;;;;2.87;2.10;;;;;;;;;;5035275;28;20202;-39
2023/04/23 02:49:22;;;;;;;4.50;2.00;;;;;;;;;;5041458;28;20528;-35
2023/04/23 02:51:49;;;;;;;2.07;1.87;;;;;;;;;;5042298;28;20225;-39
2023/04/23 02:54:17;;;;;;;3.60;2.10;;;;;;;;;;5034391;28;20258;-43
2023/04/23 02:56:44;;;;;;;3.90;1.90;;;;;;;;;;5035852;28;20208;-38
2023/04/23 02:59:11;;;;;;;3.77;1.90;;;;;;;;;;5054348;28;20202;-45
2023/04/23 03:01:38;;;;;;;2.13;2.00;;;;;;;;;;5053842;28;20216;-40
2023/04/23 03:04:06;;;;;;;2.53;2.00;;;;;;;;;;5048312;28;20416;-43
2023/04/23 03:06:35;;;;;;;2.67;2.03;;;;;;;;;;5046297;28;20232;-37
2023/04/23 03:09:03;;;;;;;1.80;1.70;;;;;;;;;;5054401;28;20206;-41
2023/04/23 03:11:30;;;;;;;3.07;2.17;;;;;;;;;;5043205;28;20214;-37
2023/04/23 03:13:57;;;;;;;2.13;1.60;;;;;;;;;;5040646;28;20325;-42
2023/04/23 03:16:25;;;;;;;3.10;1.80;;;;;;;;;;5032344;28;20206;-40
2023/04/23 03:18:53;;;;;;;2.73;1.93;;;;;;;;;;5048957;28;20193;-37
2023/04/23 03:21:20;;;;;;;2.17;1.90;;;;;;;;;;5044845;28;20186;-42
2023/04/23 03:23:48;;;;;;;2.60;1.80;;;;;;;;;;5053987;28;20235;-43
2023/04/23 03:26:15;;;;;;;2.13;1.87;;;;;;;;;;5043921;28;20195;-42
2023/04/23 03:28:42;;;;;;;1.90;1.80;;;;;;;;;;5052722;28;20241;-43
2023/04/23 03:31:10;;;;;;;1.97;1.57;;;;;;;;;;5033588;28;20214;-42
2023/04/23 03:33:37;;;;;;;2.40;1.87;;;;;;;;;;5039053;28;20220;-39
2023/04/23 03:36:05;;;;;;;2.73;1.83;;;;;;;;;;5038120;28;20192;-43
2023/04/23 03:38:32;;;;;;;2.07;1.60;;;;;;;;;;5053104;28;20304;-43
2023/04/23 03:41:01;;;;;;;3.20;1.77;;;;;;;;;;5044567;28;20198;-44
2023/04/23 03:43:28;;;;;;;1.70;1.60;;;;;;;;;;5044111;28;20218;-45
2023/04/23 03:45:55;;;;;;;1.70;1.60;;;;;;;;;;5053463;28;20208;-36
2023/04/23 03:48:22;;;;;;;1.63;1.53;;;;;;;;;;5034621;28;20214;-39
2023/04/23 03:50:49;;;;;;;1.53;1.43;;;;;;;;;;5040556;28;20196;-44
2023/04/23 03:53:17;;;;;;;1.70;1.30;;;;;;;;;;5033314;28;20227;-42
2023/04/23 03:55:44;;;;;;;3.20;1.60;;;;;;;;;;5056007;28;20205;-40
2023/04/23 03:58:12;;;;;;;1.30;1.30;;;;;;;;;;5038664;28;20198;-42
2023/04/23 04:00:40;;;;;;;2.83;1.57;;;;;;;;;;5036035;28;20201;-43
2023/04/23 04:03:07;;;;;;;2.53;1.50;;;;;;;;;;5036990;28;20210;-41
2023/04/23 04:05:34;;;;;;;1.77;1.67;;;;;;;;;;5050920;28;20197;-39
2023/04/23 04:08:03;;;;;;;1.83;1.60;;;;;;;;;;5044337;28;20210;-37
2023/04/23 04:10:30;;;;;;;1.80;1.70;;;;;;;;;;5064144;28;20197;-40
2023/04/23 04:12:58;;;;;;;3.03;1.77;;;;;;;;;;5041611;28;20223;-40
2023/04/23 04:15:26;;;;;;;2.80;1.80;;;;;;;;;;5041668;28;20198;-36
2023/04/23 04:17:53;;;;;;;2.30;1.50;;;;;;;;;;5044585;28;20212;-38
2023/04/23 04:20:21;;;;;;;1.53;1.43;;;;;;;;;;5052769;28;20226;-40
2023/04/23 04:22:48;;;;;;;1.63;1.53;;;;;;;;;;5042065;28;20211;-40
2023/04/23 04:25:15;;;;;;;2.90;1.60;;;;;;;;;;5074669;28;20205;-44
2023/04/23 04:27:42;;;;;;;1.87;1.77;;;;;;;;;;5049313;28;20211;-40
2023/04/23 04:30:10;;;;;;;2.40;1.60;;;;;;;;;;5051010;28;20201;-42
2023/04/23 04:32:39;;;;;;;2.80;1.70;;;;;;;;;;5036378;28;20214;-43
2023/04/23 04:37:35;;;;;;;1.67;1.50;;;;;;;;;;5069501;28;20218;-40
2023/04/23 04:40:03;;;;;;;1.70;1.60;;;;;;;;;;5073028;28;20196;-39
2023/04/23 04:42:31;;;;;;;1.70;1.57;;;;;;;;;;5071178;28;20252;-40
2023/04/23 04:44:58;;;;;;;3.10;1.93;;;;;;;;;;5050929;28;20228;-34
2023/04/23 04:47:25;;;;;;;2.10;1.87;;;;;;;;;;5043073;28;20209;-38
2023/04/23 04:49:56;;;;;;;1.87;1.70;;;;;;;;;;5042108;28;20290;-38
2023/04/23 04:52:23;;;;;;;3.87;1.83;;;;;;;;;;5053890;28;20219;-38
2023/04/23 04:54:50;;;;;;;2.57;1.93;;;;;;;;;;5053234;28;20221;-39
2023/04/23 04:57:19;;;;;;;2.03;1.80;;;;;;;;;;5043760;28;20202;-33
2023/04/23 04:59:46;;;;;;;3.33;1.60;;;;;;;;;;5050304;28;20196;-37
2023/04/23 05:02:13;;;;;;;2.87;1.80;;;;;;;;;;5041839;28;20248;-34
2023/04/23 05:04:40;;;;;;;1.60;1.50;;;;;;;;;;5049367;28;20237;-37
2023/04/23 05:07:09;;;;;;;2.13;1.50;;;;;;;;;;5051363;28;20199;-37
2023/04/23 05:09:37;;;;;;;5.20;1.97;;;;;;;;;;5051388;28;20202;-37
2023/04/23 05:12:06;;;;;;;1.87;1.63;;;;;;;;;;5046956;28;20228;-42
2023/04/23 05:14:33;;;;;;;2.20;1.97;;;;;;;;;;5047907;28;20216;-35
2023/04/23 05:17:00;;;;;;;1.87;1.77;;;;;;;;;;5035039;28;20205;-31
2023/04/23 05:19:28;;;;;;;1.80;1.70;;;;;;;;;;5051676;28;20220;-35
2023/04/23 05:21:55;;;;;;;1.90;1.80;;;;;;;;;;5052872;28;20197;-35
2023/04/23 05:24:23;;;;;;;2.77;1.73;;;;;;;;;;5053204;28;20286;-36
2023/04/23 05:26:51;;;;;;;5.00;2.00;;;;;;;;;;5048182;28;20200;-32
2023/04/23 05:29:18;;;;;;;2.20;2.00;;;;;;;;;;5048246;28;20200;-32
2023/04/23 05:31:45;;;;;;;1.93;1.80;;;;;;;;;;5048526;28;20239;-34
2023/04/23 05:34:13;;;;;;;2.03;1.87;;;;;;;;;;5046514;28;20222;-38
2023/04/23 05:36:40;;;;;;;2.20;2.00;;;;;;;;;;5052003;28;20214;-30
2023/04/23 05:39:07;;;;;;;5.33;2.00;;;;;;;;;;5052674;28;20293;-33
2023/04/23 05:41:35;;;;;;;2.47;1.90;;;;;;;;;;5043024;28;20289;-33
2023/04/23 05:44:02;;;;;;;2.10;1.70;;;;;;;;;;5049270;28;20216;-33
2023/04/23 05:46:30;;;;;;;2.50;2.30;;;;;;;;;;5046901;28;20202;-34
2023/04/23 05:48:57;;;;;;;3.77;2.00;;;;;;;;;;5047295;28;20196;-35
2023/04/23 05:51:24;;;;;;;3.60;2.00;;;;;;;;;;5055685;28;20198;-37
2023/04/23 05:53:51;;;;;;;2.60;2.40;;;;;;;;;;5052456;28;20214;-38
2023/04/23 05:56:18;;;;;;;2.37;2.17;;;;;;;;;;5048986;28;20199;-37
2023/04/23 05:58:52;;;;;;;2.20;2.00;;;;;;;;;;5045823;28;20224;-39
2023/04/23 06:01:19;;;;;;;2.70;2.33;;;;;;;;;;5050004;28;20194;-31
2023/04/23 06:03:46;;;;;;;3.90;1.93;;;;;;;;;;5047355;28;20233;-29
2023/04/23 06:06:14;;;;;;;2.20;2.00;;;;;;;;;;5052250;28;20194;-35
2023/04/23 06:08:41;;;;;;;5.57;1.83;;;;;;;;;;5052526;28;20216;-35
2023/04/23 06:11:08;;;;;;;2.30;2.10;;;;;;;;;;5047756;28;20541;-39
2023/04/23 06:13:39;;;;;;;3.47;2.23;;;;;;;;;;5049217;28;20220;-34
2023/04/23 06:16:07;;;;;;;3.10;2.70;;;;;;;;;;5056494;28;20198;-34
2023/04/23 06:18:35;;;;;;;3.73;2.50;;;;;;;;;;5048044;28;20210;-38
2023/04/23 06:21:03;;;;;;;3.43;2.13;;;;;;;;;;5055926;28;20440;-34
2023/04/23 06:23:31;;;;;;;2.30;2.10;;;;;;;;;;5055957;28;20219;-37
2023/04/23 06:25:58;;;;;;;2.40;1.93;;;;;;;;;;5054070;28;20191;-36
2023/04/23 06:28:25;;;;;;;2.00;1.90;;;;;;;;;;5050133;28;20196;-36
2023/04/23 06:30:53;;;;;;;2.70;2.10;;;;;;;;;;5047743;28;20200;-34
2023/04/23 06:33:21;;;;;;;2.30;1.90;;;;;;;;;;5047041;28;20236;-33
2023/04/23 06:35:48;;;;;;;3.40;2.10;;;;;;;;;;5055357;28;20271;-37
2023/04/23 06:38:17;;;;;;;3.90;2.13;;;;;;;;;;5049324;28;20198;-35
2023/04/23 06:40:45;;;;;;;2.33;2.13;;;;;;;;;;5052639;28;20241;-33
2023/04/23 06:43:13;;;;;;;5.33;2.40;;;;;;;;;;5054012;28;20248;-32
2023/04/23 06:45:40;;;;;;;5.07;2.30;;;;;;;;;;5054868;28;20220;-37
2023/04/23 06:48:07;;;;;;;1.87;1.77;;;;;;;;;;5043221;28;20208;-36
2023/04/23 06:50:36;;;;;;;2.00;1.90;;;;;;;;;;5053659;28;20284;-35
2023/04/23 06:53:03;;;;;;;2.73;2.10;;;;;;;;;;5055201;28;20229;-33
2023/04/23 06:55:30;;;;;;;2.07;1.30;;;;;;;;;;5055658;28;20198;-37
2023/04/23 06:57:57;;;;;;;2.77;1.67;;;;;;;;;;5049447;28;20206;-37
2023/04/23 07:00:24;;;;;;;3.67;1.40;;;;;;;;;;5052853;28;20198;-36
2023/04/23 07:02:52;;;;;;;1.97;1.40;;;;;;;;;;5051486;28;20194;-37
2023/04/23 07:05:19;;;;;;;1.30;1.30;;;;;;;;;;5054408;28;20194;-33
2023/04/23 07:07:48;;;;;;;1.90;1.37;;;;;;;;;;5055188;28;20209;-33
2023/04/23 07:10:15;;;;;;;0.90;0.80;;;;;;;;;;5051119;28;20199;-28
2023/04/23 07:12:42;;;;;;;0.80;0.80;;;;;;;;;;5042670;28;20221;-37
2023/04/23 07:15:09;;;;;;;1.17;1.00;;;;;;;;;;5053217;28;20194;-32
2023/04/23 07:17:38;;;;;;;1.17;0.70;;;;;;;;;;5046856;28;20198;-33
2023/04/23 07:20:07;;;;;;;1.53;0.80;;;;;;;;;;5053257;28;20277;-31
2023/04/23 07:22:34;;;;;;;0.73;0.73;;;;;;;;;;5045321;28;20221;-36
2023/04/23 07:25:04;;;;;;;0.80;0.80;;;;;;;;;;5052902;28;20232;-38
2023/04/23 07:27:31;;;;;;;1.53;0.87;;;;;;;;;;5046318;28;20208;-40
2023/04/23 07:29:58;;;;;;;0.73;0.73;;;;;;;;;;5052761;28;20214;-33
2023/04/23 07:32:26;;;;;;;0.60;0.60;;;;;;;;;;5041511;28;20226;-33
2023/04/23 07:34:54;;;;;;;0.80;0.60;;;;;;;;;;5052619;28;20214;-37
2023/04/23 07:37:22;;;;;;;1.13;0.67;;;;;;;;;;5054612;28;20228;-39
2023/04/23 07:39:49;;;;;;;0.50;0.50;;;;;;;;;;5051254;28;20289;-35
2023/04/23 07:42:17;;;;;;;0.40;0.40;;;;;;;;;;5052070;28;20201;-36
2023/04/23 07:44:45;;;;;;;0.80;0.77;;;;;;;;;;5054416;28;20228;-44
2023/04/23 07:47:12;;;;;;;0.50;0.50;;;;;;;;;;5044097;28;20202;-38
2023/04/23 07:49:39;;;;;;;0.63;0.63;;;;;;;;;;5050084;28;20225;-34
2023/04/23 07:52:07;;;;;;;0.87;0.50;;;;;;;;;;5053884;28;20280;-37
2023/04/23 07:54:34;;;;;;;0.73;0.50;;;;;;;;;;5054775;28;20285;-37
2023/04/23 07:57:01;;;;;;;0.50;0.50;;;;;;;;;;5049505;28;20198;-34
2023/04/23 07:59:30;;;;;;;1.10;1.10;;;;;;;;;;5053979;28;20201;-40
2023/04/23 08:01:57;;;;;;;0.80;0.60;;;;;;;;;;5047468;28;20205;-38
2023/04/23 08:04:24;;;;;;;0.60;0.60;;;;;;;;;;5052003;28;20218;-37
2023/04/23 08:06:52;;;;;;;0.43;0.43;;;;;;;;;;5054009;28;20202;-38
2023/04/23 08:09:19;;;;;;;1.67;0.60;;;;;;;;;;5054101;28;20198;-34
2023/04/23 08:11:47;;;;;;;0.50;0.50;;;;;;;;;;5046054;28;20206;-38
2023/04/23 08:14:14;;;;;;;0.40;0.40;;;;;;;;;;5053601;28;20221;-34
2023/04/23 08:16:42;;;;;;;0.90;0.53;;;;;;;;;;5049419;28;20202;-37
2023/04/23 08:19:10;;;;;;;0.50;0.50;;;;;;;;;;5049890;28;20198;-35
2023/04/23 08:21:38;;;;;;;0.60;0.60;;;;;;;;;;5052793;28;20201;-33
2023/04/23 08:24:06;;;;;;;0.40;0.40;;;;;;;;;;5054168;28;20233;-32
2023/04/23 08:26:33;;;;;;;0.50;0.50;;;;;;;;;;5049065;28;20212;-39
2023/04/23 08:29:01;;;;;;;0.40;0.40;;;;;;;;;;5053523;28;20190;-35
2023/04/23 08:31:29;;;;;;;0.50;0.50;;;;;;;;;;5049663;28;20198;-35
2023/04/23 08:33:58;;;;;;;0.50;0.50;;;;;;;;;;5048889;28;20271;-35
2023/04/23 08:36:26;;;;;;;0.47;0.47;;;;;;;;;;5052878;28;20269;-35
2023/04/23 08:38:53;;;;;;;0.90;0.50;;;;;;;;;;5053646;28;20198;-40
2023/04/23 08:41:23;;;;;;;1.20;0.63;;;;;;;;;;5043363;28;20294;-34
2023/04/23 08:43:53;;;;;;;0.67;0.50;;;;;;;;;;5053309;28;20215;-33
2023/04/23 08:46:20;;;;;;;0.50;0.50;;;;;;;;;;5051539;28;20220;-38
2023/04/23 08:48:48;;;;;;;0.60;0.60;;;;;;;;;;5047450;28;20211;-36
2023/04/23 08:51:18;;;;;;;0.60;0.60;;;;;;;;;;5052003;28;20195;-39
2023/04/23 08:53:49;;;;;;;0.40;0.40;;;;;;;;;;5051560;28;20439;-36
2023/04/23 08:56:16;;;;;;;1.50;0.57;;;;;;;;;;5047451;28;20286;-41
2023/04/23 08:58:43;;;;;;;0.50;0.50;;;;;;;;;;5050552;28;20197;-34
2023/04/23 09:01:10;;;;;;;1.33;0.60;;;;;;;;;;5052638;28;20214;-37
2023/04/23 09:03:38;;;;;;;0.40;0.40;;;;;;;;;;5039522;28;20214;-39
2023/04/23 09:06:05;;;;;;;0.63;0.50;;;;;;;;;;5052535;28;20277;-35
2023/04/23 09:08:34;;;;;;;0.70;0.57;;;;;;;;;;5053058;28;20201;-38
2023/04/23 09:11:02;;;;;;;0.60;0.60;;;;;;;;;;5049895;28;20212;-37
2023/04/23 09:13:30;;;;;;;0.83;0.60;;;;;;;;;;5039013;28;20222;-36
2023/04/23 09:15:58;;;;;;;0.50;0.50;;;;;;;;;;5051415;28;20249;-39
2023/04/23 09:18:25;;;;;;;1.50;0.60;;;;;;;;;;5039368;28;20202;-35
2023/04/23 09:20:53;;;;;;;3.30;0.60;;;;;;;;;;5046662;28;20281;-38
2023/04/23 09:23:22;;;;;;;0.40;0.40;;;;;;;;;;5052250;28;20221;-39
2023/04/23 09:25:51;;;;;;;0.60;0.60;;;;;;;;;;5039323;28;20206;-39
2023/04/23 09:28:18;;;;;;;0.40;0.40;;;;;;;;;;5051165;28;20205;-33
2023/04/23 09:30:46;;;;;;;0.77;0.60;;;;;;;;;;5050742;28;20202;-38
2023/04/23 09:33:13;;;;;;;0.60;0.60;;;;;;;;;;5045631;28;20495;-36
2023/04/23 09:35:42;;;;;;;0.83;0.83;;;;;;;;;;5051680;28;20215;-37
2023/04/23 09:38:09;;;;;;;1.73;1.17;;;;;;;;;;5049194;28;20206;-36
2023/04/23 09:40:37;;;;;;;1.07;0.50;;;;;;;;;;5051925;28;20198;-34
2023/04/23 09:43:07;;;;;;;1.27;0.80;;;;;;;;;;5052550;28;20218;-36
2023/04/23 09:45:35;;;;;;;0.40;0.40;;;;;;;;;;5052856;28;20211;-34
2023/04/23 09:48:02;;;;;;;0.60;0.60;;;;;;;;;;5049371;28;20199;-37
2023/04/23 09:50:33;;;;;;;1.60;0.70;;;;;;;;;;5050988;28;20229;-34
2023/04/23 09:53:00;;;;;;;0.43;0.43;;;;;;;;;;5051005;28;20261;-39
2023/04/23 09:55:29;;;;;;;0.50;0.50;;;;;;;;;;5052946;28;20217;-39
2023/04/23 09:57:56;;;;;;;0.50;0.50;;;;;;;;;;5038983;28;20210;-38
2023/04/23 10:00:29;;;;;;;1.43;0.60;;;;;;;;;;5039774;28;20202;-35
2023/04/23 10:02:56;;;;;;;0.50;0.50;;;;;;;;;;5044576;28;20212;-37
2023/04/23 10:05:47;;;;;;;0.67;0.67;;;;;;;;;;5053602;28;20261;-32
2023/04/23 10:08:16;;;;;;;2.00;0.67;;;;;;;;;;5042995;28;20195;-32
2023/04/23 10:10:44;;;;;;;1.07;0.80;;;;;;;;;;5052304;28;20208;-40
2023/04/23 10:13:11;;;;;;;0.50;0.50;;;;;;;;;;5051878;28;20236;-31
2023/04/23 10:15:40;;;;;;;0.43;0.43;;;;;;;;;;5051864;28;20267;-41
2023/04/23 10:18:09;;;;;;;1.17;0.70;;;;;;;;;;5048683;28;20284;-38
2023/04/23 10:20:36;;;;;;;0.60;0.60;;;;;;;;;;5044319;28;20199;-37
2023/04/23 10:23:04;;;;;;;0.87;0.50;;;;;;;;;;5057197;28;20225;-34
2023/04/23 10:25:32;;;;;;;0.50;0.50;;;;;;;;;;5050960;28;20194;-35
2023/04/23 10:27:59;;;;;;;0.90;0.50;;;;;;;;;;5043639;28;20400;-35
2023/04/23 10:30:26;;;;;;;0.63;0.63;;;;;;;;;;5052538;28;20190;-36
2023/04/23 10:32:55;;;;;;;0.60;0.60;;;;;;;;;;5047057;28;20202;-39
2023/04/23 10:35:22;;;;;;;0.40;0.40;;;;;;;;;;5051846;28;20292;-34
2023/04/23 10:37:51;;;;;;;1.43;0.50;;;;;;;;;;5052445;28;20200;-36
2023/04/23 10:40:20;;;;;;;0.53;0.53;;;;;;;;;;5051863;28;20198;-38
2023/04/23 10:42:48;;;;;;;0.60;0.60;;;;;;;;;;5047683;28;20225;-35
2023/04/23 10:45:16;;;;;;;0.70;0.70;;;;;;;;;;5048918;28;20190;-35
2023/04/23 10:47:44;;;;;;;0.67;0.67;;;;;;;;;;5051602;28;20203;-34
2023/04/23 10:50:23;;;;;;;0.70;0.70;;;;;;;;;;5049917;28;20198;-35
2023/04/23 10:52:52;;;;;;;0.60;0.60;;;;;;;;;;5045415;28;20387;-36
2023/04/23 10:55:20;;;;;;;0.60;0.50;;;;;;;;;;5051144;28;20218;-31
2023/04/23 10:57:57;;;;;;;0.63;0.57;;;;;;;;;;5043982;28;20280;-36
2023/04/23 11:00:24;;;;;;;0.57;0.57;;;;;;;;;;5040402;28;20198;-34
2023/04/23 11:02:51;;;;;;;1.10;0.80;;;;;;;;;;5041603;28;20221;-33
2023/04/23 11:05:19;;;;;;;0.80;0.80;;;;;;;;;;5048846;28;20224;-38
2023/04/23 11:08:01;;;;;;;0.60;0.60;;;;;;;;;;5051708;28;20210;-36
2023/04/23 11:10:30;;;;;;;0.87;0.50;;;;;;;;;;5040088;28;20200;-38
2023/04/23 11:12:57;;;;;;;0.83;0.70;;;;;;;;;;5051035;28;20252;-32
2023/04/23 11:15:24;;;;;;;0.50;0.50;;;;;;;;;;5055438;28;20234;-38
2023/04/23 11:18:01;;;;;;;0.60;0.60;;;;;;;;;;5051839;28;20202;-29
2023/04/23 11:20:28;;;;;;;1.00;0.80;;;;;;;;;;5050848;28;20197;-36
2023/04/23 11:22:55;;;;;;;0.60;0.60;;;;;;;;;;5061669;28;20194;-36
2023/04/23 11:25:23;;;;;;;2.30;0.70;;;;;;;;;;5055108;28;20205;-37
2023/04/23 11:27:52;;;;;;;0.60;0.60;;;;;;;;;;5044321;28;20203;-34
2023/04/23 11:30:20;;;;;;;2.37;0.70;;;;;;;;;;5050944;28;20522;-38
2023/04/23 11:32:49;;;;;;;1.47;0.80;;;;;;;;;;5048312;28;20313;-34
2023/04/23 11:35:17;;;;;;;1.33;0.80;;;;;;;;;;5053776;28;20277;-30
2023/04/23 11:37:45;;;;;;;0.70;0.70;;;;;;;;;;5056338;28;20202;-33
2023/04/23 11:40:17;;;;;;;0.70;0.70;;;;;;;;;;5064986;28;20202;-33
2023/04/23 11:42:45;;;;;;;1.13;0.90;;;;;;;;;;5039558;28;20198;-38
2023/04/23 11:47:42;;;;;;;0.87;0.80;;;;;;;;;;5060378;28;20235;-41
2023/04/23 11:50:09;;;;;;;0.80;0.80;;;;;;;;;;5059556;28;20197;-43
2023/04/23 11:52:37;;;;;;;0.80;0.80;;;;;;;;;;5056397;28;20224;-41
2023/04/23 11:55:04;;;;;;;0.80;0.70;;;;;;;;;;5052238;28;20305;-39
2023/04/23 11:57:31;;;;;;;0.93;0.80;;;;;;;;;;5042798;28;20205;-43
2023/04/23 11:59:58;;;;;;;0.70;0.70;;;;;;;;;;5036371;28;20202;-37
2023/04/23 12:02:26;;;;;;;0.80;0.70;;;;;;;;;;5049299;28;20210;-41
2023/04/23 12:04:55;;;;;;;1.30;1.20;;;;;;;;;;5042519;28;20214;-37
2023/04/23 12:07:32;;;;;;;2.17;1.00;;;;;;;;;;5046037;28;20197;-43
2023/04/23 12:10:00;;;;;;;1.07;0.90;;;;;;;;;;5048002;28;20198;-38
2023/04/23 12:12:33;;;;;;;0.80;0.80;;;;;;;;;;5032430;28;20230;-40
2023/04/23 12:15:04;;;;;;;1.23;0.80;;;;;;;;;;5042452;28;20225;-41
2023/04/23 12:17:31;;;;;;;2.60;0.83;;;;;;;;;;5046371;28;20201;-33
2023/04/23 12:20:00;;;;;;;0.87;0.87;;;;;;;;;;5041338;28;20198;-41
2023/04/23 12:22:28;;;;;;;0.67;0.67;;;;;;;;;;5037218;28;20222;-37
2023/04/23 12:24:55;;;;;;;0.70;0.70;;;;;;;;;;5050934;28;20229;-39
2023/04/23 12:27:22;;;;;;;0.80;0.80;;;;;;;;;;5037204;28;20216;-37
2023/04/23 12:29:50;;;;;;;1.00;0.90;;;;;;;;;;5048422;28;20230;-39
2023/04/23 12:32:17;;;;;;;0.77;0.77;;;;;;;;;;5040164;28;20205;-41
2023/04/23 12:34:52;;;;;;;1.37;0.80;;;;;;;;;;5044144;28;20609;-37
2023/04/23 12:37:24;;;;;;;0.97;0.60;;;;;;;;;;5053051;28;20512;-39
2023/04/23 12:39:51;;;;;;;1.03;0.70;;;;;;;;;;5052202;28;20194;-40
2023/04/23 12:42:19;;;;;;;0.90;0.90;;;;;;;;;;5049123;28;20281;-36
2023/04/23 12:44:46;;;;;;;0.87;0.87;;;;;;;;;;5039514;28;20246;-36
2023/04/23 12:47:14;;;;;;;3.07;0.83;;;;;;;;;;5036343;28;20292;-38
2023/04/23 12:49:42;;;;;;;1.13;0.70;;;;;;;;;;5035081;28;20206;-38
2023/04/23 12:52:09;;;;;;;1.27;0.70;;;;;;;;;;5035333;28;20295;-37
2023/04/23 12:54:39;;;;;;;1.07;0.70;;;;;;;;;;5061403;28;20237;-38
2023/04/23 12:57:07;;;;;;;0.77;0.70;;;;;;;;;;5038622;28;20202;-38
2023/04/23 12:59:34;;;;;;;0.77;0.77;;;;;;;;;;5035308;28;20203;-40
2023/04/23 13:02:01;;;;;;;0.60;0.60;;;;;;;;;;5031525;28;20211;-39
2023/04/23 13:04:28;;;;;;;0.50;0.50;;;;;;;;;;5035377;28;20226;-38
2023/04/23 13:06:55;;;;;;;0.70;0.70;;;;;;;;;;5045755;28;20195;-43
2023/04/23 13:09:23;;;;;;;1.03;0.70;;;;;;;;;;5045414;28;20283;-34
2023/04/23 13:11:52;;;;;;;0.60;0.60;;;;;;;;;;5052938;28;20226;-35
2023/04/23 13:14:20;;;;;;;1.33;0.60;;;;;;;;;;5044471;28;20224;-38
2023/04/23 13:16:47;;;;;;;1.00;0.80;;;;;;;;;;5047228;28;20222;-39
2023/04/23 13:19:15;;;;;;;0.80;0.60;;;;;;;;;;5037624;28;20206;-37
2023/04/23 13:21:42;;;;;;;0.70;0.70;;;;;;;;;;5038672;28;20204;-38
2023/04/23 13:24:10;;;;;;;0.60;0.60;;;;;;;;;;5060580;28;20218;-34
2023/04/23 13:26:37;;;;;;;0.50;0.50;;;;;;;;;;5041880;28;20194;-40
2023/04/23 13:29:05;;;;;;;0.60;0.60;;;;;;;;;;5033521;28;20290;-38
2023/04/23 13:31:33;;;;;;;0.60;0.60;;;;;;;;;;5042353;28;20198;-41
2023/04/23 13:34:01;;;;;;;0.77;0.70;;;;;;;;;;5038832;28;20222;-42
2023/04/23 13:36:28;;;;;;;0.77;0.77;;;;;;;;;;5047769;28;20237;-42
2023/04/23 13:38:56;;;;;;;0.50;0.50;;;;;;;;;;5052574;28;20199;-35
2023/04/23 13:41:23;;;;;;;1.70;0.70;;;;;;;;;;5047093;28;20206;-39
2023/04/23 13:43:51;;;;;;;0.97;0.70;;;;;;;;;;5046433;28;20253;-38
2023/04/23 13:46:20;;;;;;;0.50;0.50;;;;;;;;;;5044304;28;20287;-40
2023/04/23 13:48:47;;;;;;;1.27;0.80;;;;;;;;;;5031422;28;20879;-40
2023/04/23 13:51:14;;;;;;;0.90;0.60;;;;;;;;;;5035051;28;20198;-39
2023/04/23 13:53:42;;;;;;;0.50;0.50;;;;;;;;;;5060834;28;20225;-34
2023/04/23 13:56:09;;;;;;;0.93;0.70;;;;;;;;;;5059538;28;20236;-37
2023/04/23 13:58:36;;;;;;;0.93;0.90;;;;;;;;;;5040893;28;20209;-35
2023/04/23 14:01:04;;;;;;;1.40;1.20;;;;;;;;;;5051799;28;20204;-37
2023/04/23 14:03:33;;;;;;;1.33;1.23;;;;;;;;;;5043703;28;20221;-39
2023/04/23 14:06:01;;;;;;;0.70;0.70;;;;;;;;;;5033927;28;20191;-41
2023/04/23 14:08:28;;;;;;;0.70;0.70;;;;;;;;;;5035677;28;20234;-40
2023/04/23 14:10:56;;;;;;;1.53;1.03;;;;;;;;;;5062137;28;20209;-39
2023/04/23 14:13:23;;;;;;;0.90;0.90;;;;;;;;;;5047031;28;20217;-40
2023/04/23 14:15:50;;;;;;;0.87;0.87;;;;;;;;;;5034909;28;20245;-40
2023/04/23 14:18:17;;;;;;;1.27;1.17;;;;;;;;;;5040842;28;20202;-38
2023/04/23 14:20:46;;;;;;;0.83;0.83;;;;;;;;;;5035652;28;20233;-43
2023/04/23 14:23:35;;;;;;;0.60;0.60;;;;;;;;;;5033267;28;20315;-43
2023/04/23 14:26:05;;;;;;;1.90;0.90;;;;;;;;;;5044754;28;20202;-42
2023/04/23 14:28:35;;;;;;;2.90;1.00;;;;;;;;;;5040998;28;20226;-38
2023/04/23 14:31:02;;;;;;;0.73;0.73;;;;;;;;;;5051279;28;20215;-41
2023/04/23 14:33:29;;;;;;;4.87;0.80;;;;;;;;;;5036053;28;20215;-40
2023/04/23 14:35:58;;;;;;;1.07;0.80;;;;;;;;;;5040390;28;20562;-41
2023/04/23 14:38:25;;;;;;;1.60;1.10;;;;;;;;;;5052116;28;20204;-41
2023/04/23 14:40:52;;;;;;;1.00;0.90;;;;;;;;;;5052239;28;20219;-38
2023/04/23 14:43:20;;;;;;;1.37;0.70;;;;;;;;;;5041519;28;20219;-43
2023/04/23 14:45:49;;;;;;;1.47;0.70;;;;;;;;;;5043469;28;20306;-40
2023/04/23 14:48:16;;;;;;;2.17;0.70;;;;;;;;;;5036597;28;20204;-37
2023/04/23 14:50:43;;;;;;;0.97;0.60;;;;;;;;;;5039370;28;20208;-40
2023/04/23 14:53:12;;;;;;;0.90;0.90;;;;;;;;;;5054266;28;20226;-37